createdAt,value
2023-03-17T00:01:20.732Z,1.60
2023-03-17T00:03:50.470Z,1.63
2023-03-17T00:06:26.218Z,1.67
2023-03-17T00:08:54.040Z,1.70
2023-03-17T00:11:22.153Z,2.00
2023-03-17T00:13:50.202Z,1.52
2023-03-17T00:16:20.222Z,1.73
2023-03-17T00:18:49.497Z,2.10
2023-03-17T00:21:26.930Z,2.08
2023-03-17T00:23:56.147Z,1.70
2023-03-17T00:26:24.188Z,1.70
2023-03-17T00:28:53.042Z,1.70
2023-03-17T00:31:24.718Z,1.88
2023-03-17T00:33:54.984Z,1.95
2023-03-17T00:36:28.076Z,1.90
2023-03-17T00:38:57.194Z,1.80
2023-03-17T00:41:27.094Z,2.37
2023-03-17T00:43:55.391Z,1.80
2023-03-17T00:46:27.819Z,2.30
2023-03-17T00:48:55.913Z,2.10
2023-03-17T00:51:25.154Z,2.08
2023-03-17T00:53:52.923Z,1.90
2023-03-17T00:56:22.488Z,1.55
2023-03-17T00:58:50.672Z,1.90
2023-03-17T01:01:19.946Z,2.10
2023-03-17T01:03:48.312Z,1.70
2023-03-17T01:06:17.626Z,1.80
2023-03-17T01:08:47.483Z,1.58
2023-03-17T01:11:18.756Z,1.98
2023-03-17T01:13:48.669Z,1.90
2023-03-17T01:16:17.038Z,2.00
2023-03-17T01:18:45.564Z,1.93
2023-03-17T01:21:14.003Z,1.95
2023-03-17T01:23:42.224Z,2.10
2023-03-17T01:26:11.824Z,1.90
2023-03-17T01:28:39.714Z,1.75
2023-03-17T01:31:07.543Z,1.77
2023-03-17T01:33:35.377Z,1.70
2023-03-17T01:36:03.470Z,1.60
2023-03-17T01:38:31.357Z,1.67
2023-03-17T01:41:00.038Z,2.30
2023-03-17T01:43:31.397Z,2.10
2023-03-17T01:46:27.358Z,1.90
2023-03-17T01:49:04.463Z,1.85
2023-03-17T01:51:37.772Z,1.63
2023-03-17T01:54:10.540Z,1.75
2023-03-17T01:56:41.728Z,1.70
2023-03-17T01:59:15.917Z,1.90
2023-03-17T02:01:47.367Z,1.80
2023-03-17T02:04:16.146Z,2.00
2023-03-17T02:06:57.419Z,2.20
2023-03-17T02:09:26.451Z,1.70
2023-03-17T02:11:55.629Z,1.70
2023-03-17T02:14:25.484Z,2.20
2023-03-17T02:16:53.568Z,1.90
2023-03-17T02:19:21.508Z,1.77
2023-03-17T02:21:53.792Z,1.90
2023-03-17T02:24:28.977Z,1.85
2023-03-17T02:27:03.829Z,2.00
2023-03-17T02:29:34.131Z,1.98
2023-03-17T02:32:02.181Z,2.05
2023-03-17T02:34:31.778Z,1.90
2023-03-17T02:37:01.302Z,1.83
2023-03-17T02:39:31.858Z,1.88
2023-03-17T02:41:59.991Z,1.95
2023-03-17T02:44:28.059Z,1.80
2023-03-17T02:46:56.622Z,2.17
2023-03-17T02:49:26.086Z,2.10
2023-03-17T02:51:54.645Z,2.10
2023-03-17T02:54:23.823Z,2.20
2023-03-17T02:56:51.703Z,2.22
2023-03-17T02:59:19.435Z,2.20
2023-03-17T03:01:48.539Z,1.73
2023-03-17T03:04:16.459Z,1.80
2023-03-17T03:06:44.818Z,1.98
2023-03-17T03:09:12.730Z,2.10
2023-03-17T03:11:42.636Z,1.70
2023-03-17T03:14:11.091Z,2.08
2023-03-17T03:16:39.218Z,2.30
2023-03-17T03:19:07.724Z,1.90
2023-03-17T03:21:36.634Z,1.95
2023-03-17T03:24:05.252Z,2.00
2023-03-17T03:26:33.355Z,1.80
2023-03-17T03:29:02.631Z,1.90
2023-03-17T03:31:30.774Z,1.85
2023-03-17T03:33:58.558Z,1.90
2023-03-17T03:36:26.853Z,1.80
2023-03-17T03:38:54.913Z,1.92
2023-03-17T03:41:22.942Z,2.10
2023-03-17T03:43:50.812Z,2.08
2023-03-17T03:46:20.301Z,1.88
2023-03-17T03:48:48.323Z,1.80
2023-03-17T03:51:16.138Z,1.70
2023-03-17T03:53:43.960Z,2.00
2023-03-17T03:56:11.838Z,2.00
2023-03-17T03:58:39.592Z,2.10
2023-03-17T04:01:07.958Z,1.70
2023-03-17T04:03:37.234Z,1.77
2023-03-17T04:06:06.174Z,1.90
2023-03-17T04:08:34.231Z,2.00
2023-03-17T04:11:01.992Z,2.47
2023-03-17T04:13:29.711Z,1.87
2023-03-17T04:15:57.542Z,1.63
2023-03-17T04:18:25.833Z,1.67
2023-03-17T04:20:55.006Z,1.95
2023-03-17T04:23:22.936Z,1.83
2023-03-17T04:25:51.878Z,2.10
2023-03-17T04:28:19.634Z,1.92
2023-03-17T04:30:47.507Z,1.98
2023-03-17T04:33:15.430Z,1.67
2023-03-17T04:35:43.485Z,1.88
2023-03-17T04:38:13.994Z,2.07
2023-03-17T04:40:41.798Z,1.80
2023-03-17T04:43:10.320Z,2.10
2023-03-17T04:45:38.456Z,1.75
2023-03-17T04:48:06.907Z,1.58
2023-03-17T04:50:34.712Z,1.87
2023-03-17T04:53:02.485Z,1.88
2023-03-17T04:55:31.906Z,2.13
2023-03-17T04:57:59.767Z,1.98
2023-03-17T05:00:28.180Z,1.90
2023-03-17T05:02:56.085Z,2.40
2023-03-17T05:05:24.027Z,2.08
2023-03-17T05:07:51.794Z,1.90
2023-03-17T05:10:19.583Z,1.90
2023-03-17T05:12:48.775Z,2.10
2023-03-17T05:15:19.440Z,2.23
2023-03-17T05:17:47.276Z,1.83
2023-03-17T05:20:15.712Z,2.03
2023-03-17T05:22:43.536Z,2.00
2023-03-17T05:25:11.310Z,2.38
2023-03-17T05:27:39.507Z,1.97
2023-03-17T05:30:10.283Z,2.00
2023-03-17T05:32:38.246Z,2.00
2023-03-17T05:35:06.716Z,2.05
2023-03-17T05:37:34.848Z,2.17
2023-03-17T05:40:03.151Z,2.20
2023-03-17T05:42:31.399Z,2.10
2023-03-17T05:44:59.355Z,2.20
2023-03-17T05:47:28.495Z,2.00
2023-03-17T05:49:56.260Z,1.98
2023-03-17T05:52:24.172Z,2.27
2023-03-17T05:54:53.417Z,2.00
2023-03-17T05:57:21.821Z,2.20
2023-03-17T05:59:50.720Z,2.33
2023-03-17T06:02:18.650Z,2.30
2023-03-17T06:04:47.919Z,2.47
2023-03-17T06:07:15.822Z,1.95
2023-03-17T06:09:43.628Z,2.00
2023-03-17T06:12:11.559Z,1.90
2023-03-17T06:14:39.421Z,2.13
2023-03-17T06:17:07.358Z,2.10
2023-03-17T06:19:35.151Z,2.17
2023-03-17T06:22:04.305Z,2.40
2023-03-17T06:24:32.152Z,2.33
2023-03-17T06:27:00.171Z,2.22
2023-03-17T06:29:28.785Z,2.30
2023-03-17T06:31:59.548Z,1.88
2023-03-17T06:34:29.348Z,2.53
2023-03-17T06:36:57.248Z,2.33
2023-03-17T06:39:26.630Z,2.03
2023-03-17T06:41:54.676Z,2.13
2023-03-17T06:44:22.730Z,2.20
2023-03-17T06:46:51.052Z,2.03
2023-03-17T06:49:19.014Z,2.20
2023-03-17T06:51:46.795Z,2.00
2023-03-17T06:54:14.667Z,2.47
2023-03-17T06:56:45.041Z,2.00
2023-03-17T06:59:13.314Z,2.03
2023-03-17T07:01:41.113Z,2.33
2023-03-17T07:04:09.465Z,2.20
2023-03-17T07:06:37.583Z,1.80
2023-03-17T07:09:05.756Z,2.20
2023-03-17T07:11:33.530Z,2.28
2023-03-17T07:14:02.748Z,2.50
2023-03-17T07:16:30.825Z,2.22
2023-03-17T07:18:58.763Z,2.17
2023-03-17T07:21:26.536Z,1.98
2023-03-17T07:23:54.385Z,2.53
2023-03-17T07:26:22.454Z,2.78
2023-03-17T07:28:50.474Z,2.95
2023-03-17T07:31:19.615Z,3.07
2023-03-17T07:33:47.770Z,3.20
2023-03-17T07:36:15.733Z,2.80
2023-03-17T07:38:43.834Z,2.70
2023-03-17T07:41:11.643Z,3.03
2023-03-17T07:43:39.545Z,2.63
2023-03-17T07:46:07.494Z,2.70
2023-03-17T07:48:40.817Z,2.78
2023-03-17T07:51:13.790Z,2.53
2023-03-17T07:53:41.761Z,2.65
2023-03-17T07:56:10.280Z,2.50
2023-03-17T07:58:38.443Z,2.40
2023-03-17T08:01:06.835Z,2.72
2023-03-17T08:03:38.125Z,2.55
2023-03-17T08:06:08.721Z,2.90
2023-03-17T08:08:36.919Z,2.70
2023-03-17T08:11:06.196Z,2.70
2023-03-17T08:13:34.477Z,2.70
2023-03-17T08:16:02.584Z,2.50
2023-03-17T08:18:30.420Z,2.60
2023-03-17T08:21:00.087Z,2.13
2023-03-17T08:23:27.901Z,2.35
2023-03-17T08:25:58.060Z,2.95
2023-03-17T08:28:26.269Z,2.50
2023-03-17T08:30:54.396Z,2.40
2023-03-17T08:33:23.435Z,2.70
2023-03-17T08:35:51.539Z,2.88
2023-03-17T08:38:20.726Z,2.70
2023-03-17T08:40:50.495Z,2.83
2023-03-17T08:43:18.691Z,2.40
2023-03-17T08:45:46.522Z,2.63
2023-03-17T08:48:15.186Z,2.63
2023-03-17T08:50:43.012Z,3.05
2023-03-17T08:53:10.931Z,2.50
2023-03-17T08:55:40.120Z,3.10
2023-03-17T08:58:09.484Z,2.90
2023-03-17T09:00:37.352Z,2.38
2023-03-17T09:03:05.724Z,2.78
2023-03-17T09:05:36.275Z,2.90
2023-03-17T09:08:06.200Z,2.95
2023-03-17T09:10:34.402Z,2.90
2023-03-17T09:13:04.661Z,3.15
2023-03-17T09:15:34.195Z,3.00
2023-03-17T09:18:03.282Z,2.70
2023-03-17T09:20:31.568Z,3.00
2023-03-17T09:23:00.366Z,2.73
2023-03-17T09:25:28.377Z,2.60
2023-03-17T09:27:56.500Z,3.30
2023-03-17T09:30:26.828Z,3.10
2023-03-17T09:32:54.894Z,3.15
2023-03-17T09:35:22.751Z,3.13
2023-03-17T09:37:51.566Z,3.33
2023-03-17T09:40:22.181Z,3.28
2023-03-17T09:42:58.175Z,2.97
2023-03-17T09:45:34.472Z,2.90
2023-03-17T09:48:12.896Z,3.60
2023-03-17T09:50:47.707Z,2.97
2023-03-17T09:53:19.345Z,3.20
2023-03-17T09:55:52.567Z,3.20
2023-03-17T09:58:22.441Z,3.25
2023-03-17T10:00:51.760Z,2.87
2023-03-17T10:03:20.454Z,2.90
2023-03-17T10:05:48.450Z,3.60
2023-03-17T10:08:30.741Z,3.60
2023-03-17T10:11:06.247Z,3.40
2023-03-17T10:13:49.509Z,2.90
2023-03-17T10:16:21.790Z,2.85
2023-03-17T10:18:54.086Z,3.67
2023-03-17T10:21:26.829Z,3.05
2023-03-17T10:23:56.298Z,3.53
2023-03-17T10:26:30.806Z,3.20
2023-03-17T10:28:59.812Z,3.42
2023-03-17T10:31:35.198Z,3.67
2023-03-17T10:34:14.653Z,3.42
2023-03-17T10:36:45.497Z,3.35
2023-03-17T10:39:15.749Z,3.33
2023-03-17T10:41:53.368Z,4.15
2023-03-17T10:44:39.568Z,3.95
2023-03-17T10:47:24.786Z,4.00
2023-03-17T10:49:53.341Z,3.60
2023-03-17T10:52:27.442Z,4.40
2023-03-17T10:54:55.747Z,4.47
2023-03-17T10:57:23.602Z,4.78
2023-03-17T10:59:53.795Z,3.78
2023-03-17T11:02:27.025Z,4.38
2023-03-17T11:05:02.357Z,4.60
2023-03-17T11:07:35.328Z,4.20
2023-03-17T11:10:06.564Z,4.00
2023-03-17T11:12:39.338Z,4.32
2023-03-17T11:15:11.572Z,4.10
2023-03-17T11:17:49.230Z,5.20
2023-03-17T11:20:34.763Z,4.45
2023-03-17T11:23:10.636Z,4.50
2023-03-17T11:25:43.371Z,4.45
2023-03-17T11:28:21.678Z,3.97
2023-03-17T11:30:58.265Z,4.63
2023-03-17T11:33:36.308Z,4.00
2023-03-17T11:36:12.608Z,4.45
2023-03-17T11:38:48.159Z,4.40
2023-03-17T11:41:33.037Z,4.55
2023-03-17T11:44:13.492Z,4.20
2023-03-17T11:46:47.689Z,4.15
2023-03-17T11:49:20.469Z,4.40
2023-03-17T11:51:59.686Z,4.40
2023-03-17T11:54:41.645Z,4.50
2023-03-17T11:57:15.278Z,4.40
2023-03-17T11:59:48.427Z,4.80
2023-03-17T12:02:23.402Z,4.47
2023-03-17T12:04:57.297Z,4.55
2023-03-17T12:07:30.016Z,3.85
2023-03-17T12:10:15.644Z,3.93
2023-03-17T12:12:49.020Z,4.07
2023-03-17T12:15:24.008Z,4.38
2023-03-17T12:17:57.158Z,4.15
2023-03-17T12:20:33.993Z,4.15
2023-03-17T12:23:07.709Z,4.00
2023-03-17T12:25:38.490Z,3.70
2023-03-17T12:28:12.961Z,4.10
2023-03-17T12:30:49.300Z,4.15
2023-03-17T12:33:23.636Z,4.22
2023-03-17T12:35:53.092Z,3.80
2023-03-17T12:38:26.554Z,4.13
2023-03-17T12:41:20.856Z,4.40
2023-03-17T12:44:01.269Z,5.07
2023-03-17T12:46:43.801Z,4.22
2023-03-17T12:49:46.393Z,3.87
2023-03-17T12:52:22.647Z,4.38
2023-03-17T12:54:52.695Z,4.03
2023-03-17T12:57:22.466Z,3.88
2023-03-17T12:59:59.821Z,4.47
2023-03-17T13:02:37.394Z,4.30
2023-03-17T13:05:09.189Z,3.80
2023-03-17T13:07:42.984Z,4.30
2023-03-17T13:10:20.117Z,3.40
2023-03-17T13:13:13.082Z,3.97
2023-03-17T13:15:59.329Z,3.53
2023-03-17T13:18:47.870Z,3.70
2023-03-17T13:21:18.185Z,3.78
2023-03-17T13:23:50.996Z,3.42
2023-03-17T13:26:21.288Z,3.60
2023-03-17T13:28:50.828Z,4.00
2023-03-17T13:31:36.627Z,3.97
2023-03-17T13:34:13.351Z,4.03
2023-03-17T13:36:47.781Z,3.70
2023-03-17T13:39:48.647Z,3.47
2023-03-17T13:42:54.403Z,3.97
2023-03-17T13:45:37.114Z,4.30
2023-03-17T13:48:33.581Z,4.40
2023-03-17T13:51:08.787Z,4.00
2023-03-17T13:53:41.245Z,4.55
2023-03-17T13:56:16.814Z,4.43
2023-03-17T13:59:13.600Z,4.30
2023-03-17T14:01:46.976Z,4.20
2023-03-17T14:04:21.283Z,4.30
2023-03-17T14:06:52.629Z,4.82
2023-03-17T14:09:35.374Z,5.00
2023-03-17T14:12:12.464Z,4.28
2023-03-17T14:14:47.965Z,4.13
2023-03-17T14:17:20.008Z,3.95
2023-03-17T14:20:01.373Z,4.20
2023-03-17T14:22:29.322Z,4.67
2023-03-17T14:25:01.522Z,4.25
2023-03-17T14:27:33.841Z,4.55
2023-03-17T14:30:07.653Z,4.15
2023-03-17T14:32:35.603Z,4.63
2023-03-17T14:35:03.456Z,3.80
2023-03-17T14:37:31.378Z,4.00
2023-03-17T14:39:59.983Z,4.03
2023-03-17T14:42:30.689Z,5.57
2023-03-17T14:45:03.177Z,4.68
2023-03-17T14:47:34.770Z,4.43
2023-03-17T14:50:03.119Z,4.00
2023-03-17T14:52:35.674Z,4.10
2023-03-17T14:55:03.799Z,4.50
2023-03-17T14:57:34.552Z,4.28
2023-03-17T15:00:15.804Z,4.33
2023-03-17T15:02:44.239Z,4.68
2023-03-17T15:05:26.026Z,4.00
2023-03-17T15:07:54.461Z,4.82
2023-03-17T15:10:25.111Z,3.90
2023-03-17T15:13:03.223Z,4.60
2023-03-17T15:15:33.618Z,4.00
2023-03-17T15:18:05.779Z,4.70
2023-03-17T15:20:35.417Z,4.38
2023-03-17T15:23:06.173Z,4.13
2023-03-17T15:25:38.539Z,4.50
2023-03-17T15:28:13.231Z,4.53
2023-03-17T15:30:47.650Z,5.05
2023-03-17T15:33:22.275Z,4.43
2023-03-17T15:35:51.021Z,4.47
2023-03-17T15:38:18.982Z,4.50
2023-03-17T15:40:46.777Z,5.18
2023-03-17T15:43:17.145Z,5.60
2023-03-17T15:45:46.229Z,5.25
2023-03-17T15:48:21.148Z,5.78
2023-03-17T15:50:49.624Z,4.63
2023-03-17T15:53:17.852Z,5.15
2023-03-17T15:55:46.154Z,5.32
2023-03-17T15:58:14.248Z,6.00
2023-03-17T16:00:44.227Z,5.95
2023-03-17T16:03:19.070Z,5.53
2023-03-17T16:05:47.325Z,6.05
2023-03-17T16:08:15.882Z,6.07
2023-03-17T16:10:43.686Z,5.97
2023-03-17T16:13:11.747Z,6.35
2023-03-17T16:15:42.037Z,6.63
2023-03-17T16:18:18.120Z,5.68
2023-03-17T16:20:48.482Z,6.07
2023-03-17T16:23:19.112Z,5.95
2023-03-17T16:25:47.834Z,5.72
2023-03-17T16:28:17.574Z,5.57
2023-03-17T16:30:46.566Z,6.07
2023-03-17T16:33:19.533Z,6.38
2023-03-17T16:35:49.552Z,6.57
2023-03-17T16:38:19.319Z,6.40
2023-03-17T16:40:49.701Z,6.20
2023-03-17T16:43:25.453Z,7.00
2023-03-17T16:45:55.819Z,7.25
2023-03-17T16:48:25.735Z,6.55
2023-03-17T16:50:54.397Z,6.75
2023-03-17T16:53:22.710Z,6.40
2023-03-17T16:55:52.117Z,6.85
2023-03-17T16:58:22.705Z,6.28
2023-03-17T17:00:52.395Z,5.85
2023-03-17T17:03:20.628Z,6.07
2023-03-17T17:05:49.842Z,5.90
2023-03-17T17:08:17.689Z,6.32
2023-03-17T17:10:45.551Z,7.57
2023-03-17T17:13:13.682Z,6.88
2023-03-17T17:15:42.572Z,6.78
2023-03-17T17:18:15.605Z,6.23
2023-03-17T17:20:45.156Z,6.03
2023-03-17T17:23:16.434Z,6.70
2023-03-17T17:25:44.694Z,6.78
2023-03-17T17:28:14.133Z,6.57
2023-03-17T17:30:45.063Z,6.50
2023-03-17T17:33:13.525Z,6.38
2023-03-17T17:35:41.985Z,5.75
2023-03-17T17:38:18.898Z,6.45
2023-03-17T17:40:46.971Z,6.60
2023-03-17T17:43:14.911Z,6.50
2023-03-17T17:45:43.722Z,6.70
2023-03-17T17:48:11.771Z,7.22
2023-03-17T17:50:39.618Z,6.45
2023-03-17T17:53:11.645Z,6.82
2023-03-17T17:55:41.550Z,6.27
2023-03-17T17:58:09.801Z,6.35
2023-03-17T18:00:37.631Z,6.80
2023-03-17T18:03:05.415Z,6.60
2023-03-17T18:05:33.249Z,6.65
2023-03-17T18:08:02.413Z,7.00
2023-03-17T18:10:31.048Z,7.32
2023-03-17T18:13:00.803Z,8.00
2023-03-17T18:15:29.149Z,8.20
2023-03-17T18:17:57.212Z,8.05
2023-03-17T18:20:26.060Z,11.53
2023-03-17T18:22:53.990Z,10.23
2023-03-17T18:25:21.946Z,7.38
2023-03-17T18:27:49.726Z,7.30
2023-03-17T18:30:24.633Z,6.85
2023-03-17T18:32:56.067Z,6.27
2023-03-17T18:35:27.032Z,6.75
2023-03-17T18:37:57.222Z,7.22
2023-03-17T18:40:25.935Z,8.02
2023-03-17T18:42:56.413Z,7.30
2023-03-17T18:45:25.798Z,7.13
2023-03-17T18:47:53.568Z,7.88
2023-03-17T18:50:22.336Z,7.32
2023-03-17T18:52:50.718Z,7.32
2023-03-17T18:55:22.793Z,7.38
2023-03-17T18:57:52.098Z,7.17
2023-03-17T19:00:27.906Z,7.50
2023-03-17T19:03:01.781Z,6.75
2023-03-17T19:05:30.487Z,6.80
2023-03-17T19:07:58.977Z,7.25
2023-03-17T19:10:30.136Z,6.40
2023-03-17T19:13:01.553Z,7.88
2023-03-17T19:15:36.425Z,7.43
2023-03-17T19:18:09.869Z,8.98
2023-03-17T19:20:38.143Z,8.80
2023-03-17T19:23:06.907Z,9.17
2023-03-17T19:25:35.090Z,9.00
2023-03-17T19:28:04.096Z,8.13
2023-03-17T19:30:32.445Z,8.30
2023-03-17T19:33:00.572Z,6.93
2023-03-17T19:35:29.957Z,7.17
2023-03-17T19:38:01.155Z,7.20
2023-03-17T19:40:31.208Z,7.50
2023-03-17T19:42:59.225Z,7.15
2023-03-17T19:45:30.259Z,7.30
2023-03-17T19:47:58.909Z,7.33
2023-03-17T19:50:29.670Z,8.32
2023-03-17T19:52:57.706Z,8.20
2023-03-17T19:55:26.193Z,8.10
2023-03-17T19:57:54.446Z,9.00
2023-03-17T20:00:22.906Z,7.90
2023-03-17T20:02:50.848Z,7.53
2023-03-17T20:05:18.787Z,8.40
2023-03-17T20:07:48.074Z,7.75
2023-03-17T20:10:19.118Z,7.88
2023-03-17T20:12:47.142Z,7.40
2023-03-17T20:15:16.379Z,8.30
2023-03-17T20:17:46.962Z,7.75
2023-03-17T20:20:17.203Z,7.68
2023-03-17T20:22:45.201Z,7.47
2023-03-17T20:25:14.588Z,7.13
2023-03-17T20:27:42.494Z,7.30
2023-03-17T20:30:12.276Z,7.85
2023-03-17T20:32:43.480Z,8.77
2023-03-17T20:35:11.727Z,8.07
2023-03-17T20:37:39.953Z,8.00
2023-03-17T20:40:10.645Z,7.57
2023-03-17T20:42:43.889Z,8.32
2023-03-17T20:45:11.873Z,9.57
2023-03-17T20:47:39.722Z,9.85
2023-03-17T20:50:08.771Z,9.10
2023-03-17T20:52:36.966Z,8.73
2023-03-17T20:55:06.084Z,8.85
2023-03-17T20:57:34.202Z,10.00
2023-03-17T21:00:04.358Z,8.75
2023-03-17T21:02:32.248Z,9.10
2023-03-17T21:05:00.163Z,9.63
2023-03-17T21:07:27.957Z,9.63
2023-03-17T21:09:56.776Z,9.07
2023-03-17T21:12:26.078Z,8.48
2023-03-17T21:14:54.004Z,9.20
2023-03-17T21:17:24.432Z,9.20
2023-03-17T21:19:54.085Z,9.35
2023-03-17T21:22:22.547Z,9.10
2023-03-17T21:24:50.432Z,9.30
2023-03-17T21:27:18.180Z,9.87
2023-03-17T21:29:48.029Z,9.85
2023-03-17T21:32:16.047Z,9.23
2023-03-17T21:34:47.074Z,9.40
2023-03-17T21:37:16.008Z,9.50
2023-03-17T21:39:44.606Z,9.77
2023-03-17T21:42:12.929Z,9.68
2023-03-17T21:44:41.073Z,10.25
2023-03-17T21:47:08.903Z,10.05
2023-03-17T21:49:37.070Z,10.50
2023-03-17T21:52:07.292Z,10.23
2023-03-17T21:54:35.112Z,10.23
2023-03-17T21:57:02.976Z,10.07
2023-03-17T21:59:34.277Z,10.35
2023-03-17T22:02:02.917Z,9.45
2023-03-17T22:04:30.884Z,9.53
2023-03-17T22:06:59.069Z,10.40
2023-03-17T22:09:28.571Z,10.40
2023-03-17T22:11:56.417Z,10.27
2023-03-17T22:14:24.247Z,9.85
2023-03-17T22:16:52.126Z,9.97
2023-03-17T22:19:21.322Z,10.65
2023-03-17T22:21:49.735Z,10.82
2023-03-17T22:24:17.791Z,9.90
2023-03-17T22:26:47.051Z,10.40
2023-03-17T22:29:15.118Z,11.00
2023-03-17T22:31:42.977Z,10.88
2023-03-17T22:34:10.837Z,9.88
2023-03-17T22:36:38.636Z,10.00
2023-03-17T22:39:08.817Z,9.18
2023-03-17T22:41:36.817Z,10.30
2023-03-17T22:44:08.189Z,9.15
2023-03-17T22:46:36.561Z,10.10
2023-03-17T22:49:05.421Z,9.80
2023-03-17T22:51:33.396Z,9.45
2023-03-17T22:54:01.204Z,9.23
2023-03-17T22:56:29.186Z,9.77
2023-03-17T22:58:57.047Z,8.88
2023-03-17T23:01:26.373Z,9.38
2023-03-17T23:03:55.342Z,9.90
2023-03-17T23:06:24.556Z,8.70
2023-03-17T23:08:52.832Z,9.20
2023-03-17T23:11:23.886Z,8.85
2023-03-17T23:13:52.828Z,9.52
2023-03-17T23:16:21.970Z,9.13
2023-03-17T23:18:51.405Z,8.83
2023-03-17T23:21:27.630Z,8.98
2023-03-17T23:23:55.601Z,9.70
2023-03-17T23:26:23.532Z,9.25
2023-03-17T23:28:51.392Z,9.48
2023-03-17T23:31:20.503Z,9.67
2023-03-17T23:33:49.255Z,9.88
2023-03-17T23:36:18.958Z,10.40
2023-03-17T23:38:47.020Z,9.73
2023-03-17T23:41:15.068Z,9.38
2023-03-17T23:43:43.990Z,10.17
2023-03-17T23:46:13.873Z,9.68
2023-03-17T23:48:42.927Z,10.52
2023-03-17T23:51:12.361Z,10.40
2023-03-17T23:53:42.931Z,10.57
2023-03-17T23:56:13.000Z,10.00
2023-03-17T23:58:42.453Z,9.82
